New Hamburg, Canada
Current Conditions -  °F | °C
As of 8:00 PM on Friday 28 Nov 2014 (Local Time) from CYKF Reporting Station
Broken Clouds Broken Clouds  
Wind Chill: 11°   Ceiling: 15000
Heat Index: 19°   Visibility: 9mi
Dew Point: 12°   Wind: 6mph
Humidity: 74%   Direction: 210°SSW
Pressure: 30.16"   Gusts: NA
Location:  43.38°N, 80.72°W
Report Text: CYKF 290100Z AUTO 21005KT 9SM BKN150 M07/M11 A3016 RMK SLP232
Loading
Personal Weather Stations






























Interactive Weather Map New forecast layout! Learn more

10-Day Weather Forecast

Advertisements
Track Severe Weather on mobile